createdAt,value
2022-08-10T00:00:12.183Z,20.32
2022-08-10T00:02:41.065Z,20.30
2022-08-10T00:05:11.393Z,20.25
2022-08-10T00:07:43.165Z,20.23
2022-08-10T00:10:13.601Z,20.24
2022-08-10T00:12:54.425Z,20.25
2022-08-10T00:15:51.947Z,20.24
2022-08-10T00:17:47.017Z,20.25
2022-08-10T00:20:16.472Z,20.23
2022-08-10T00:22:52.964Z,20.20
2022-08-10T00:25:17.897Z,20.20
2022-08-10T00:28:01.623Z,20.19
2022-08-10T00:30:19.781Z,20.18
2022-08-10T00:32:49.179Z,20.15
2022-08-10T00:35:18.639Z,20.15
2022-08-10T00:38:09.402Z,20.14
2022-08-10T00:40:39.436Z,20.12
2022-08-10T00:43:23.319Z,20.10
2022-08-10T00:45:58.778Z,20.10
2022-08-10T00:48:24.620Z,20.09
2022-08-10T00:50:56.322Z,20.09
2022-08-10T00:53:27.530Z,20.05
2022-08-10T00:57:14.045Z,20.03
2022-08-10T00:58:31.184Z,20.03
2022-08-10T01:01:01.374Z,20.03
2022-08-10T01:04:39.612Z,20.03
2022-08-10T01:06:18.776Z,20.01
2022-08-10T01:09:02.666Z,19.99
2022-08-10T01:12:41.010Z,20.00
2022-08-10T01:14:38.543Z,19.97
2022-08-10T01:17:17.963Z,19.94
2022-08-10T01:19:58.880Z,19.93
2022-08-10T01:22:49.073Z,19.93
2022-08-10T01:26:12.329Z,19.93
2022-08-10T01:28:44.326Z,19.88
2022-08-10T01:31:16.471Z,19.85
2022-08-10T01:33:58.893Z,19.84
2022-08-10T01:36:32.341Z,19.81
2022-08-10T01:39:04.054Z,19.76
2022-08-10T01:41:46.522Z,19.77
2022-08-10T01:44:20.160Z,19.81
2022-08-10T01:46:56.723Z,19.79
2022-08-10T01:49:23.955Z,19.76
2022-08-10T01:52:00.457Z,19.77
2022-08-10T01:54:29.408Z,19.77
2022-08-10T01:56:58.729Z,19.76
2022-08-10T01:59:35.326Z,19.78
2022-08-10T02:02:10.839Z,19.76
2022-08-10T02:04:42.162Z,19.76
2022-08-10T02:07:16.327Z,19.73
2022-08-10T02:09:51.505Z,19.73
2022-08-10T02:12:23.872Z,19.73
2022-08-10T02:15:02.125Z,19.70
2022-08-10T02:17:58.374Z,19.67
2022-08-10T02:20:23.110Z,19.64
2022-08-10T02:22:58.836Z,19.62
2022-08-10T02:25:42.166Z,19.61
2022-08-10T02:28:00.133Z,19.59
2022-08-10T02:30:29.254Z,19.58
2022-08-10T02:32:59.316Z,19.58
2022-08-10T02:35:33.485Z,19.55
2022-08-10T02:38:03.986Z,19.53
2022-08-10T02:45:01.996Z,19.54
2022-08-10T02:45:23.046Z,19.55
2022-08-10T02:46:05.894Z,19.57
2022-08-10T02:48:43.467Z,19.57
2022-08-10T02:51:18.380Z,19.56
2022-08-10T02:53:56.133Z,19.49
2022-08-10T02:56:45.658Z,19.45
2022-08-10T02:59:18.397Z,19.42
2022-08-10T03:01:49.502Z,19.37
2022-08-10T03:04:57.859Z,19.34
2022-08-10T03:07:05.559Z,19.31
2022-08-10T03:09:35.597Z,19.29
2022-08-10T03:12:35.897Z,19.29
2022-08-10T03:14:37.377Z,19.29
2022-08-10T03:17:07.951Z,19.26
2022-08-10T03:20:34.894Z,19.23
2022-08-10T03:22:08.606Z,19.23
2022-08-10T03:24:37.798Z,19.22
2022-08-10T03:27:07.024Z,19.23
2022-08-10T03:30:32.021Z,19.25
2022-08-10T03:32:08.404Z,19.24
2022-08-10T03:34:38.020Z,19.24
2022-08-10T03:37:07.550Z,19.22
2022-08-10T03:39:36.752Z,19.19
2022-08-10T03:42:07.641Z,19.19
2022-08-10T03:44:36.651Z,19.19
2022-08-10T03:47:16.106Z,19.19
2022-08-10T03:49:38.664Z,19.15
2022-08-10T03:52:07.732Z,19.12
2022-08-10T03:54:37.219Z,19.12
2022-08-10T03:57:06.655Z,19.13
2022-08-10T03:59:36.846Z,19.17
2022-08-10T04:02:43.941Z,19.16
2022-08-10T04:04:40.618Z,19.14
2022-08-10T04:07:09.774Z,19.15
2022-08-10T04:09:53.586Z,19.15
2022-08-10T04:12:10.291Z,19.16
2022-08-10T04:14:49.385Z,19.19
2022-08-10T04:17:13.951Z,19.17
2022-08-10T04:19:48.711Z,19.23
2022-08-10T04:22:22.432Z,19.25
2022-08-10T04:24:59.403Z,19.29
2022-08-10T04:27:29.596Z,19.33
2022-08-10T04:29:59.243Z,19.39
2022-08-10T04:32:32.092Z,19.43
2022-08-10T04:35:01.184Z,19.42
2022-08-10T04:37:30.697Z,19.47
2022-08-10T04:40:00.004Z,19.51
2022-08-10T04:42:29.739Z,19.54
2022-08-10T04:44:58.651Z,19.56
2022-08-10T04:47:57.732Z,19.57
2022-08-10T04:49:58.380Z,19.54
2022-08-10T04:52:28.190Z,19.52
2022-08-10T04:54:57.362Z,19.55
2022-08-10T04:57:27.665Z,19.57
2022-08-10T04:59:57.310Z,19.59
2022-08-10T05:02:31.234Z,19.64
2022-08-10T05:04:58.061Z,19.72
2022-08-10T05:07:27.618Z,19.77
2022-08-10T05:10:04.109Z,19.79
2022-08-10T05:12:27.756Z,19.84
2022-08-10T05:14:58.232Z,19.85
2022-08-10T05:17:27.654Z,19.88
2022-08-10T05:20:02.252Z,19.91
2022-08-10T05:22:27.181Z,19.92
2022-08-10T05:24:56.639Z,19.90
2022-08-10T05:27:25.499Z,19.94
2022-08-10T05:30:01.590Z,19.95
2022-08-10T05:32:25.581Z,19.98
2022-08-10T05:34:54.546Z,19.95
2022-08-10T05:38:10.909Z,19.98
2022-08-10T05:39:56.716Z,20.06
2022-08-10T05:42:27.056Z,20.12
2022-08-10T05:44:56.333Z,20.15
2022-08-10T05:47:26.504Z,20.18
2022-08-10T05:49:57.964Z,20.16
2022-08-10T05:52:27.413Z,20.12
2022-08-10T05:54:59.609Z,20.14
2022-08-10T05:57:27.416Z,20.15
2022-08-10T06:00:11.326Z,20.12
2022-08-10T06:02:38.808Z,20.14
2022-08-10T06:05:17.179Z,20.17
2022-08-10T06:08:04.768Z,20.21
2022-08-10T06:10:35.602Z,20.18
2022-08-10T06:13:30.313Z,20.20
2022-08-10T06:15:57.708Z,20.23
2022-08-10T06:18:26.797Z,20.28
2022-08-10T06:20:56.316Z,20.32
2022-08-10T06:23:27.919Z,20.40
2022-08-10T06:26:10.722Z,20.45
2022-08-10T06:28:31.394Z,20.44
2022-08-10T06:31:01.397Z,20.44
2022-08-10T06:33:31.682Z,20.47
2022-08-10T06:36:01.117Z,20.51
2022-08-10T06:38:32.854Z,20.56
2022-08-10T06:41:07.070Z,20.55
2022-08-10T06:43:40.446Z,20.53
2022-08-10T06:46:13.097Z,20.53
2022-08-10T06:48:54.237Z,20.50
2022-08-10T06:51:29.808Z,20.52
2022-08-10T06:54:03.311Z,20.50
2022-08-10T06:56:39.846Z,20.45
2022-08-10T06:59:30.647Z,20.42
2022-08-10T07:02:12.903Z,20.43
2022-08-10T07:04:59.398Z,20.46
2022-08-10T07:07:31.876Z,20.50
2022-08-10T07:10:02.938Z,20.48
2022-08-10T07:12:32.418Z,20.50
2022-08-10T07:15:01.624Z,20.52
2022-08-10T07:17:33.880Z,20.55
2022-08-10T07:20:03.130Z,20.56
2022-08-10T07:23:22.771Z,20.53
2022-08-10T07:25:07.597Z,20.55
2022-08-10T07:27:59.195Z,20.58
2022-08-10T07:30:13.160Z,20.61
2022-08-10T07:32:48.446Z,20.62
2022-08-10T07:35:23.329Z,20.64
2022-08-10T07:37:57.097Z,20.68
2022-08-10T07:40:52.762Z,20.76
2022-08-10T07:43:34.408Z,20.83
2022-08-10T07:46:15.872Z,20.90
2022-08-10T07:48:53.847Z,21.00
2022-08-10T07:51:28.644Z,21.11
2022-08-10T07:54:05.948Z,21.17
2022-08-10T07:56:48.866Z,21.19
2022-08-10T07:59:17.740Z,21.18
2022-08-10T08:01:54.982Z,21.19
2022-08-10T08:04:25.977Z,21.21
2022-08-10T08:06:57.997Z,21.29
2022-08-10T08:09:28.219Z,21.35
2022-08-10T08:11:59.572Z,21.39
2022-08-10T08:14:30.144Z,21.38
2022-08-10T08:17:00.926Z,21.37
2022-08-10T08:19:37.643Z,21.41
2022-08-10T08:24:06.198Z,21.41
2022-08-10T08:24:36.785Z,21.40
2022-08-10T08:27:07.488Z,21.40
2022-08-10T08:29:37.690Z,21.41
2022-08-10T08:32:08.248Z,21.41
2022-08-10T08:34:40.674Z,21.40
2022-08-10T08:37:11.203Z,21.39
2022-08-10T08:39:44.190Z,21.38
2022-08-10T08:42:38.114Z,21.37
2022-08-10T08:46:01.273Z,21.35
2022-08-10T08:48:35.072Z,21.36
2022-08-10T08:52:17.030Z,21.36
2022-08-10T08:54:43.917Z,21.38
2022-08-10T08:57:53.726Z,21.38
2022-08-10T09:00:46.623Z,21.39
2022-08-10T09:03:43.672Z,21.40
2022-08-10T09:06:39.118Z,21.45
2022-08-10T09:09:39.538Z,21.56
2022-08-10T09:12:47.786Z,21.62
2022-08-10T09:15:41.079Z,21.66
2022-08-10T09:18:01.793Z,21.72
2022-08-10T09:21:09.392Z,21.82
2022-08-10T09:24:06.454Z,21.95
2022-08-10T09:26:51.741Z,22.08
2022-08-10T09:29:28.396Z,22.20
2022-08-10T09:33:05.815Z,22.20
2022-08-10T09:36:23.352Z,22.19
2022-08-10T09:38:01.735Z,22.20
2022-08-10T09:40:59.334Z,22.24
2022-08-10T09:43:40.352Z,22.30
2022-08-10T09:46:36.986Z,22.28
2022-08-10T09:49:54.042Z,22.28
2022-08-10T09:52:27.706Z,22.28
2022-08-10T09:56:17.824Z,22.31
2022-08-10T09:58:06.732Z,22.37
2022-08-10T10:00:41.477Z,22.40
2022-08-10T10:03:25.844Z,22.41
2022-08-10T10:06:00.066Z,22.46
2022-08-10T10:08:38.319Z,22.53
2022-08-10T10:11:31.107Z,22.57
2022-08-10T10:14:26.234Z,22.61
2022-08-10T10:17:10.141Z,22.63
2022-08-10T10:19:51.046Z,22.62
2022-08-10T10:22:47.162Z,22.63
2022-08-10T10:25:50.253Z,22.61
2022-08-10T10:28:20.466Z,22.66
2022-08-10T10:31:28.583Z,22.72
2022-08-10T10:34:27.887Z,22.79
2022-08-10T10:36:58.335Z,22.82
2022-08-10T10:39:27.860Z,22.83
2022-08-10T10:42:44.886Z,22.85
2022-08-10T10:45:25.778Z,22.87
2022-08-10T10:48:24.358Z,22.92
2022-08-10T10:51:16.616Z,22.94
2022-08-10T10:54:24.920Z,22.94
2022-08-10T10:57:20.339Z,22.99
2022-08-10T11:00:08.230Z,23.05
2022-08-10T11:02:56.902Z,23.13
2022-08-10T11:05:57.126Z,23.21
2022-08-10T11:08:30.939Z,23.26
2022-08-10T11:11:13.076Z,23.23
2022-08-10T11:14:25.726Z,23.20
2022-08-10T11:16:57.288Z,23.17
2022-08-10T11:20:01.599Z,23.15
2022-08-10T11:22:54.302Z,23.11
2022-08-10T11:25:33.645Z,23.12
2022-08-10T11:28:20.555Z,23.15
2022-08-10T11:31:06.105Z,23.18
2022-08-10T11:34:49.140Z,23.16
2022-08-10T11:36:51.709Z,23.15
2022-08-10T11:39:54.130Z,23.11
2022-08-10T11:42:35.880Z,23.08
2022-08-10T11:45:12.655Z,23.05
2022-08-10T11:47:54.583Z,23.04
2022-08-10T11:50:35.416Z,23.07
2022-08-10T11:53:10.437Z,23.10
2022-08-10T11:55:40.195Z,23.13
2022-08-10T11:58:31.356Z,23.18
2022-08-10T12:01:04.696Z,23.24
2022-08-10T12:03:38.981Z,23.28
2022-08-10T12:06:13.807Z,23.30
2022-08-10T12:10:03.452Z,23.33
2022-08-10T12:11:33.334Z,23.39
2022-08-10T12:14:21.445Z,23.40
2022-08-10T12:16:46.652Z,23.43
2022-08-10T12:19:28.849Z,23.43
2022-08-10T12:22:12.767Z,23.42
2022-08-10T12:25:00.192Z,23.45
2022-08-10T12:27:41.413Z,23.45
2022-08-10T12:30:16.858Z,23.44
2022-08-10T12:33:04.761Z,23.43
2022-08-10T12:36:18.441Z,23.41
2022-08-10T12:39:08.096Z,23.39
2022-08-10T12:41:56.678Z,23.45
2022-08-10T12:44:41.630Z,23.46
2022-08-10T12:47:29.832Z,23.47
2022-08-10T12:50:29.939Z,23.49
2022-08-10T12:53:06.737Z,23.49
2022-08-10T12:55:39.583Z,23.47
2022-08-10T12:59:00.209Z,23.42
2022-08-10T13:01:14.776Z,23.41
2022-08-10T13:04:21.886Z,23.44
2022-08-10T13:06:02.054Z,23.47
2022-08-10T13:08:48.976Z,23.50
2022-08-10T13:12:33.910Z,23.47
2022-08-10T13:13:58.719Z,23.47
2022-08-10T13:16:31.268Z,23.49
2022-08-10T13:19:04.634Z,23.51
2022-08-10T13:21:37.136Z,23.52
2022-08-10T13:24:23.884Z,23.48
2022-08-10T13:27:25.107Z,23.49
2022-08-10T13:29:51.356Z,23.48
2022-08-10T13:32:31.233Z,23.49
2022-08-10T13:35:15.599Z,23.46
2022-08-10T13:37:48.203Z,23.44
2022-08-10T13:40:21.591Z,23.42
2022-08-10T13:42:53.974Z,23.38
2022-08-10T13:45:26.388Z,23.36
2022-08-10T13:48:11.218Z,23.34
2022-08-10T13:50:42.837Z,23.31
2022-08-10T13:53:15.687Z,23.30
2022-08-10T13:55:55.262Z,23.29
2022-08-10T13:58:29.772Z,23.23
2022-08-10T14:01:14.233Z,23.19
2022-08-10T14:03:46.777Z,23.18
2022-08-10T14:06:19.961Z,23.15
2022-08-10T14:08:56.499Z,23.15
2022-08-10T14:11:26.483Z,23.14
2022-08-10T14:13:58.806Z,23.08
2022-08-10T14:16:28.712Z,23.05
2022-08-10T14:19:01.734Z,23.04
2022-08-10T14:21:30.498Z,23.05
2022-08-10T14:23:59.066Z,23.07
2022-08-10T14:26:31.270Z,23.11
2022-08-10T14:29:06.661Z,23.11
2022-08-10T14:31:38.130Z,23.10
2022-08-10T14:34:10.797Z,23.11
2022-08-10T14:36:55.248Z,23.11
2022-08-10T14:39:35.610Z,23.12
2022-08-10T14:42:16.764Z,23.13
2022-08-10T14:44:59.005Z,23.11
2022-08-10T14:47:59.307Z,23.13
2022-08-10T14:50:00.548Z,23.09
2022-08-10T14:52:30.948Z,23.10
2022-08-10T14:55:04.400Z,23.09
2022-08-10T14:58:16.541Z,23.11
2022-08-10T15:00:25.521Z,23.14
2022-08-10T15:02:56.323Z,23.15
2022-08-10T15:05:23.455Z,23.15
2022-08-10T15:07:58.948Z,23.14
2022-08-10T15:10:25.272Z,23.09
2022-08-10T15:12:54.595Z,23.06
2022-08-10T15:15:27.981Z,23.04
2022-08-10T15:17:58.231Z,23.02
2022-08-10T15:20:28.650Z,23.00
2022-08-10T15:23:30.581Z,22.98
2022-08-10T15:25:57.756Z,22.96
2022-08-10T15:28:18.315Z,22.97
2022-08-10T15:30:56.254Z,22.98
2022-08-10T15:34:04.978Z,22.99
2022-08-10T15:36:37.265Z,22.99
2022-08-10T15:39:16.466Z,22.96
2022-08-10T15:41:58.077Z,22.90
2022-08-10T15:44:13.663Z,22.86
2022-08-10T15:46:52.170Z,22.84
2022-08-10T15:49:27.379Z,22.80
2022-08-10T15:52:09.715Z,22.75
2022-08-10T15:54:55.057Z,22.72
2022-08-10T15:57:29.485Z,22.69
2022-08-10T16:00:09.559Z,22.68
2022-08-10T16:02:55.447Z,22.66
2022-08-10T16:05:40.879Z,22.66
2022-08-10T16:08:04.522Z,22.64
2022-08-10T16:10:53.628Z,22.64
2022-08-10T16:13:51.037Z,22.65
2022-08-10T16:15:59.400Z,22.62
2022-08-10T16:18:31.431Z,22.62
2022-08-10T16:21:07.589Z,22.60
2022-08-10T16:23:40.955Z,22.59
2022-08-10T16:26:15.048Z,22.56
2022-08-10T16:28:48.453Z,22.56
2022-08-10T16:31:22.631Z,22.56
2022-08-10T16:33:55.518Z,22.54
2022-08-10T16:36:54.271Z,22.54
2022-08-10T16:39:59.314Z,22.53
2022-08-10T16:42:11.650Z,22.50
2022-08-10T16:45:05.864Z,22.46
2022-08-10T16:47:39.318Z,22.45
2022-08-10T16:50:10.275Z,22.42
2022-08-10T16:52:40.225Z,22.39
2022-08-10T16:55:23.696Z,22.37
2022-08-10T16:57:45.272Z,22.36
2022-08-10T17:00:19.049Z,22.33
2022-08-10T17:02:52.575Z,22.31
2022-08-10T17:06:03.652Z,22.29
2022-08-10T17:08:05.009Z,22.27
2022-08-10T17:10:35.532Z,22.21
2022-08-10T17:13:06.351Z,22.18
2022-08-10T17:15:35.805Z,22.17
2022-08-10T17:18:04.894Z,22.14
2022-08-10T17:20:41.327Z,22.13
2022-08-10T17:23:11.734Z,22.13
2022-08-10T17:25:45.799Z,22.13
2022-08-10T17:28:33.121Z,22.09
2022-08-10T17:30:57.953Z,22.06
2022-08-10T17:33:25.191Z,22.04
2022-08-10T17:35:55.188Z,22.00
2022-08-10T17:38:25.224Z,21.97
2022-08-10T17:41:13.213Z,21.95
2022-08-10T17:43:58.238Z,21.95
2022-08-10T17:46:15.103Z,21.90
2022-08-10T17:48:44.534Z,21.88
2022-08-10T17:51:15.212Z,21.85
2022-08-10T17:53:47.771Z,21.82
2022-08-10T17:56:17.956Z,21.79
2022-08-10T17:58:50.645Z,21.80
2022-08-10T18:01:42.108Z,21.77
2022-08-10T18:04:01.355Z,21.74
2022-08-10T18:06:30.616Z,21.72
2022-08-10T18:09:40.544Z,21.72
2022-08-10T18:12:27.741Z,21.69
2022-08-10T18:14:53.231Z,21.67
2022-08-10T18:17:25.612Z,21.66
2022-08-10T18:19:58.557Z,21.65
2022-08-10T18:22:27.366Z,21.60
2022-08-10T18:24:58.571Z,21.57
2022-08-10T18:27:46.557Z,21.55
2022-08-10T18:30:04.364Z,21.53
2022-08-10T18:32:35.559Z,21.53
2022-08-10T18:35:07.197Z,21.52
2022-08-10T18:37:36.828Z,21.53
2022-08-10T18:40:10.485Z,21.53
2022-08-10T18:42:50.247Z,21.52
2022-08-10T18:45:29.656Z,21.48
2022-08-10T18:48:11.081Z,21.47
2022-08-10T18:50:52.657Z,21.47
2022-08-10T18:53:33.327Z,21.47
2022-08-10T18:56:43.494Z,21.43
2022-08-10T19:00:08.447Z,21.40
2022-08-10T19:02:49.108Z,21.35
2022-08-10T19:06:07.417Z,21.32
2022-08-10T19:08:49.970Z,21.32
2022-08-10T19:11:56.726Z,21.30
2022-08-10T19:14:41.339Z,21.30
2022-08-10T19:18:03.795Z,21.26
2022-08-10T19:20:39.331Z,21.23
2022-08-10T19:23:32.127Z,21.19
2022-08-10T19:26:44.646Z,21.16
2022-08-10T19:30:12.533Z,21.12
2022-08-10T19:33:27.839Z,21.07
2022-08-10T19:36:14.600Z,21.08
2022-08-10T19:39:07.258Z,21.06
2022-08-10T19:41:46.400Z,21.02
2022-08-10T19:44:50.349Z,20.98
2022-08-10T19:47:37.782Z,20.94
2022-08-10T19:50:37.876Z,20.91
2022-08-10T19:53:24.815Z,20.87
2022-08-10T19:56:34.124Z,20.88
2022-08-10T19:59:10.371Z,20.89
2022-08-10T20:01:55.194Z,20.88
2022-08-10T20:04:20.189Z,20.87
2022-08-10T20:07:10.695Z,20.88
2022-08-10T20:09:51.348Z,20.86
2022-08-10T20:12:43.046Z,20.84
2022-08-10T20:15:20.660Z,20.84
2022-08-10T20:18:06.125Z,20.84
2022-08-10T20:20:49.840Z,20.85
2022-08-10T20:23:35.249Z,20.88
2022-08-10T20:26:13.335Z,20.89
2022-08-10T20:29:08.287Z,20.91
2022-08-10T20:31:41.501Z,20.91
2022-08-10T20:34:26.066Z,20.92
2022-08-10T20:37:09.812Z,20.92
2022-08-10T20:39:55.174Z,20.91
2022-08-10T20:42:36.205Z,20.86
2022-08-10T20:45:09.240Z,20.84
2022-08-10T20:47:54.095Z,20.79
2022-08-10T20:50:58.384Z,20.74
2022-08-10T20:53:29.365Z,20.67
2022-08-10T20:56:31.745Z,20.60
2022-08-10T20:59:33.772Z,20.52
2022-08-10T21:02:28.704Z,20.43
2022-08-10T21:05:03.748Z,20.40
2022-08-10T21:08:02.079Z,20.39
2022-08-10T21:11:05.803Z,20.35
2022-08-10T21:14:09.439Z,20.30
2022-08-10T21:17:19.255Z,20.12
2022-08-10T21:20:15.682Z,20.04
2022-08-10T21:22:47.588Z,19.95
2022-08-10T21:25:29.771Z,19.88
2022-08-10T21:28:29.430Z,19.85
2022-08-10T21:31:15.900Z,19.84
2022-08-10T21:34:32.374Z,19.87
2022-08-10T21:37:40.124Z,19.90
2022-08-10T21:41:18.322Z,19.84
2022-08-10T21:43:49.522Z,19.75
2022-08-10T21:47:03.809Z,19.74
2022-08-10T21:50:07.159Z,19.74
2022-08-10T21:53:04.371Z,19.67
2022-08-10T21:56:29.711Z,19.58
2022-08-10T21:59:28.668Z,19.58
2022-08-10T22:02:28.214Z,19.61
2022-08-10T22:05:20.163Z,19.61
2022-08-10T22:08:12.772Z,19.59
2022-08-10T22:11:13.382Z,19.59
2022-08-10T22:14:06.474Z,19.61
2022-08-10T22:18:10.541Z,19.59
2022-08-10T22:20:06.585Z,19.57
2022-08-10T22:23:11.354Z,19.56
2022-08-10T22:26:33.669Z,19.57
2022-08-10T22:29:42.321Z,19.58
2022-08-10T22:32:42.390Z,19.55
2022-08-10T22:36:04.475Z,19.53
2022-08-10T22:40:10.828Z,19.49
2022-08-10T22:42:59.143Z,19.44
2022-08-10T22:45:34.030Z,19.39
2022-08-10T22:48:24.744Z,19.38
2022-08-10T22:50:56.398Z,19.36
2022-08-10T22:54:10.839Z,19.30
2022-08-10T22:56:59.834Z,19.24
2022-08-10T22:59:30.947Z,19.18
2022-08-10T23:02:12.148Z,19.20
2022-08-10T23:05:00.222Z,19.21
2022-08-10T23:07:34.515Z,19.22
2022-08-10T23:10:10.834Z,19.24
2022-08-10T23:12:54.087Z,19.25
2022-08-10T23:15:49.200Z,19.27
2022-08-10T23:18:47.790Z,19.28
2022-08-10T23:21:18.822Z,19.27
2022-08-10T23:23:48.666Z,19.28
2022-08-10T23:26:27.295Z,19.30
2022-08-10T23:28:59.928Z,19.32
2022-08-10T23:31:50.235Z,19.32
2022-08-10T23:34:00.100Z,19.32
2022-08-10T23:36:35.642Z,19.32
2022-08-10T23:39:26.415Z,19.35
2022-08-10T23:41:40.858Z,19.36
2022-08-10T23:44:13.171Z,19.33
2022-08-10T23:46:46.655Z,19.30
2022-08-10T23:49:16.718Z,19.28
2022-08-10T23:51:55.379Z,19.29
2022-08-10T23:54:21.820Z,19.32
2022-08-10T23:56:56.881Z,19.26
2022-08-10T23:59:29.732Z,19.17
